Luka Prieto

Chief Scout - Valladolid
3 Dec 2028
Sunday
Process

Personality

Adaptability (7) Ambition (2) Controversy (14) Loyalty (8) Pressure (9) Professionalism (4) Sportsmanship (6) Temperament (14)

Profile

Coaching Style Democratic
License Continental C
Determination 7
Man Management 7
Motivating 7
Discipline 9
Job Satisfaction
100%
Fatigue
0%
Role Chief Scout
Wage 59.0K p/w
Contract 14.03.2030

Performance

Behaviour Good
Training Effectiveness
44%
Player Development
45%
Injury Prevention
45%
Tactical Implementation
50%

Recent Events

Attended a recruitment meeting now
Attended a recruitment meeting now
Attended a recruitment meeting now
Recommended a transfer target now
Attended a recruitment meeting 7d ago
Recommended a transfer target 7d ago
Attended a recruitment meeting 7d ago
Observed a match 7d ago

Currently Monitoring

197
Player Club Status Ability Confidence Watched Last Observed Latest Vote
Gabriel Bravo Córdoba Lost 107 / 107 83% 1 21.08.2028 -
Lucas Prieto Athletic Bilbao Lost 104 / 123 83% 1 14.08.2028 -
Daniel Banjaqui Benfica Active 128 / 134 40% 6 10.07.2028 -
Tyler Fletcher Rotherham United Active 115 / 118 40% 5 10.07.2028 -
Máximo Munarriz San Telmo Active 102 / 106 40% 1 10.07.2028 -
Andrija Bulatović Chamois Niortais Active 126 / 133 40% 10 03.07.2028 -
Nicolò Moranduzzo Renate Active 97 / 100 40% 3 03.07.2028 -
Ayden Heaven Portsmouth Active 144 / 149 40% 6 11.06.2028 -
Sebastian Rodriguez Houston Dynamo Active 112 / 131 40% 1 11.06.2028 -
Bernardo Lima Porto Active 106 / 116 40% 4 31.05.2028 -
Konta Ismaily Active 101 / 100 40% 3 30.05.2028 -
Fabián Correa Barranquilla Active 86 / 90 40% 1 30.05.2028 -
Jan Bürger Northampton Town Active 122 / 125 40% 6 29.05.2028 -
Jorge Salinas Racing Santander Active 135 / 132 40% 7 29.05.2028 -
Tobías Ramírez River Plate Active 132 / 133 40% 5 29.05.2028 -
Josh Nichols Oldham Athletic Active 121 / 123 40% 10 28.05.2028 -
Giovanni Leoni Lincoln City Active 141 / 143 40% 4 27.05.2028 -
Jorthy Mokio ADO Den Haag Active 135 / 139 40% 8 24.05.2028 -
Lautaro Dufur Juventud Active 98 / 104 40% 1 22.05.2028 -
Honest Ahanor Atalanta Active 136 / 144 40% 13 20.05.2028 -
Hervin Goyes Deportivo Pasto Active 106 / 112 40% 1 17.05.2028 -
Trey Nyoni Rotherham United Active 141 / 148 40% 4 11.05.2028 -
Christos Mouzakitis Hull City Active 138 / 141 40% 9 09.05.2028 -
Martim Cunha Porto Active 111 / 113 40% 5 08.05.2028 -
Lucas Høgsberg RC Strasbourg Active 143 / 141 40% 6 06.05.2028 -
Kiani Inge Groningen Active 113 / 118 40% 2 02.05.2028 -
Riquelme Thompson-Jones Accrington Stanley Active 109 / 113 40% 3 28.04.2028 -
Pape Diong Westerlo Active 123 / 128 40% 2 27.04.2028 -
Olivier Leroux Mouscron Active 98 / 107 40% 1 08.04.2028 -
Josh Acheampong Everton Active 146 / 147 40% 8 07.04.2028 -
Victor Hernandez Santa Fe Active 114 / 124 40% 14 03.04.2028 -
Matias Siltanen Malmo FF Active 130 / 126 40% 4 31.03.2028 -
Lamine Bèye Portimonense Active 113 / 116 40% 2 24.03.2028 -
Cheveyo Tsawa Club Brugge Active 125 / 134 40% 2 17.03.2028 -
Daniel Idoko Ikorodu City Active 95 / 100 40% 1 31.12.2027 -
Maren Kefas Plateau United Active 91 / 92 40% 11 29.12.2027 -
Valentino Acuña Newell's Old Boys Active 115 / 123 40% 7 29.12.2027 -
Rémi Himbert AC Ajaccio Active 116 / 122 40% 2 29.12.2027 -
Dylan Cabral Arsenal Active 105 / 103 40% 6 28.12.2027 -
Nicolás Barros Schelotto Gimnasia La Plata Active 119 / 131 40% 5 28.12.2027 -
Joel Ezra Enyimba Active 93 / 103 40% 6 26.12.2027 -
Francisco Triver River Plate Active 95 / 103 40% 6 26.12.2027 -
Matías Arias Vélez Active 109 / 119 40% 6 26.12.2027 -
Jeremías Merlo Gimnasia La Plata Active 122 / 120 40% 7 25.12.2027 -
Rafael Moreno Atletico Venezuela Active 107 / 113 40% 6 25.12.2027 -
Ruben Ramos LA Galaxy Active 106 / 111 40% 5 24.12.2027 -
Alex Verón Vélez Active 118 / 118 40% 4 22.12.2027 -
Luka Andrade Montevideo City Torque Active 100 / 108 40% 3 22.12.2027 -
Gabriel Lopes San Marcos de Arica Active 91 / 101 40% 3 22.12.2027 -
Hugo Rojas Instituto Active 107 / 116 40% 2 22.12.2027 -
Hosea Michael Remo Stars Active 94 / 96 40% 2 22.12.2027 -
Colin Guske Orlando City Active 91 / 107 40% 1 21.12.2027 -
Mateo Peralta Danubio Active 114 / 114 40% 3 16.12.2027 -
Luighi Palmeiras Active 115 / 113 40% 1 16.12.2027 -
Juan Rodríguez Cerro Largo Active 100 / 99 40% 2 15.12.2027 -
Giovanni Baroni Talleres Active 106 / 126 40% 5 14.12.2027 -
Nahuel Leivas Montevideo City Torque Active 102 / 105 40% 3 11.12.2027 -
Christ Wawa Gefle Active 96 / 98 40% 2 10.12.2027 -
Yury Oyarzo Racing Active 92 / 103 40% 3 08.12.2027 -
Francisco Marchant Colo-Colo Active 92 / 99 40% 1 04.12.2027 -
Tiago Pucciarelli IF Elfsborg Active 99 / 104 40% 1 02.12.2027 -
Mateo Silvetti Seattle Sounders Active 125 / 124 40% 1 28.11.2027 -
Nupe Godstime Bayelsa United Active 84 / 95 40% 1 23.11.2027 -
Mustapha Umar Kano Pillars Active 90 / 94 40% 6 17.11.2027 -
Tomás Aranda Boca Juniors Active 112 / 118 40% 1 16.11.2027 -
Luis Yanes Real Cartagena Active 92 / 91 40% 1 14.11.2027 -
Chimobi Igwilo Rangers International Active 91 / 93 40% 1 13.11.2027 -
Issa Yusuf Shooting Stars Active 88 / 92 40% 3 25.09.2027 -
Juan Manuel Villalba Tigre Active 113 / 127 40% 1 21.09.2027 -
Adrian Skogmar Malmo FF Active 115 / 120 40% 1 21.09.2027 -
Yerry Gonzalez Universitario Popayan Active 95 / 95 40% 3 20.09.2027 -
Ignacio Fernández Boston River Active 91 / 101 40% 2 18.09.2027 -
Gadiel Paoli River Plate Active 94 / 100 40% 1 18.09.2027 -
Olaniyi Saheed Kwara United Active 97 / 99 40% 4 17.09.2027 -
Zahir Ibarra Defensa y Justicia Active 102 / 105 40% 2 16.09.2027 -
Sebastián Flores Ferro Carril Oeste Active 105 / 107 40% 1 16.09.2027 -
Marc Domènech Ceuta Active 132 / 137 52% 1 / 1m 15.09.2027 -
Esteban de Lima Tacuarembo Active 94 / 102 40% 1 15.09.2027 -
Nicolás Blanco San Lorenzo Active 98 / 109 40% 1 11.09.2027 -
Facundo Balatti Penarol Active 100 / 112 40% 1 10.09.2027 -
Diego Vargas Universidad de Concepcion Active 92 / 98 40% 1 08.09.2027 -
Ángel Aguayo Sol de America Active 96 / 96 40% 1 08.09.2027 -
Agustín Medina Lanús Active 117 / 130 40% 2 06.09.2027 -
Nazareno Roselli Defensa y Justicia Active 111 / 121 40% 1 24.08.2027 -
Gonçalo Oliveira Benfica Active 118 / 116 40% 5 19.07.2027 -
Marco Oroná Antofagasta Active 97 / 103 40% 1 19.07.2027 -
Giacomo Raspadori Atalanta Active 155 / 148 40% 3 05.07.2027 -
Oli McBurnie Hull City Active 134 / 133 40% 1 05.07.2027 -
Erick Sánchez RC Lens Active 139 / 139 68% 1 01.06.2027 -
Savinho Tottenham Active 158 / 153 40% 5 30.05.2027 -
Jonathan Dubasin Osasuna Active 138 / 145 40% 7 28.05.2027 -
Carlos Álvarez Club America Active 144 / 144 40% 7 26.05.2027 -
Jenson Jones Walsall Active 98 / 95 40% 2 26.05.2027 -
Derensili Sanches Fernandes Huddersfield Town Active 124 / 118 40% 1 23.05.2027 -
Gaspar Gijón Active 140 / 132 40% 5 21.05.2027 Monitor
Cian Ashford Cardiff City Active 116 / 118 40% 1 21.05.2027 -
Tyrhys Dolan Espanyol Active 136 / 136 40% 2 20.05.2027 -
Sascha Britschgi AC Milan Active 124 / 127 40% 2 20.05.2027 -
Mohamed-Ali Cho Hull City Active 134 / 139 40% 2 20.05.2027 -
Finn Azaz Southampton Active 132 / 132 40% 4 19.05.2027 -
Omar El Hilali Espanyol Active 144 / 145 40% 4 19.05.2027 -
Pablo Torre Mallorca Active 148 / 145 40% 4 17.05.2027 -
Kevin Fulham Active 151 / 146 40% 5 16.05.2027 -
Andrés Martín Racing Santander Active 142 / 136 40% 12 15.05.2027 -
Kazunari Kita Real Sociedad Active 99 / 103 67% 4 15.05.2027 -
Miguel Figueiredo Benfica Active 105 / 114 40% 1 15.05.2027 -
Ramiro Sordo Santos Laguna Active 125 / 130 40% 9 12.05.2027 -
Brian Gutiérrez Guadalajara Active 127 / 126 40% 5 09.05.2027 -
Riley Owen Stevenage Active 104 / 111 40% 3 06.05.2027 -
Izan Merino Málaga Active 120 / 132 40% 4 05.05.2027 -
Eliás Montiel Borussia Dortmund Active 133 / 138 40% 1 30.04.2027 -
Jon Garro Real Sociedad Active 87 / 88 67% 5 29.04.2027 -
Yussif Saidu Zaragoza Active 123 / 122 40% 2 29.04.2027 -
Louis Leroux FC Nantes Active 125 / 133 40% 1 28.04.2027 -
Roberto Fernández Braga Active 143 / 143 40% 7 26.04.2027 Monitor
Pau Víctor Braga Active 145 / 144 40% 5 26.04.2027 -
James Bacca La Equidad Active 124 / 125 40% 3 21.04.2027 -
Caleb Yirenkyi Coventry City Active 135 / 138 40% 3 21.04.2027 -
Enzo Loiodice Olympique Lyonnais Active 131 / 129 40% 1 21.04.2027 -
Chemsdine Talbi Sunderland Active 146 / 148 40% 5 18.04.2027 -
Pablo Santiago Castellón Active 128 / 126 40% 2 17.04.2027 -
Juan Bezerra Zamalek Active 121 / 127 40% 2 15.04.2027 -
Edwin Asamoah Berekum Chelsea Active 89 / 94 40% 1 14.04.2027 -
David Larrubia Málaga Active 136 / 137 40% 4 11.04.2027 -
Sorriso Famalicao Active 131 / 132 40% 1 08.04.2027 -
Emirhan Başyiğit Sivasspor Active 102 / 109 40% 1 08.04.2027 -
Yusi Alavés Active 128 / 127 40% 1 08.04.2027 -
James Dornelly Peterborough United Active 104 / 108 40% 3 03.04.2027 -
Erik Lira Cruz Azul Active 143 / 130 40% 5 31.03.2027 -
Justo Giani Umraniyespor Active 126 / 111 40% 5 25.03.2027 -
Diego López Valencia Active 140 / 143 40% 1 25.03.2027 -
Joaquin Seys Club Brugge Active 130 / 128 40% 2 21.03.2027 -
Pau Navarro Villarreal Active 143 / 143 40% 2 21.03.2027 -
Nicolás Castro Toluca Active 136 / 135 40% 2 15.03.2027 -
Richard Ledezma Guadalajara Active 141 / 134 40% 1 11.03.2027 -
Ezequiel Bullaude Santos Laguna Active 121 / 122 40% 7 10.03.2027 -
Marcelo Allende Mamelodi Sundowns Active 129 / 129 40% 3 10.03.2027 -
Oswin Appollis Orlando Pirates Active 130 / 126 40% 4 09.03.2027 -
Duk Atlas Active 125 / 112 40% 5 07.03.2027 -
Brian Rodríguez Club America Active 137 / 129 40% 5 06.03.2027 -
Aimar Osasuna Active 148 / 147 40% 3 05.03.2027 -
Isaiah Jones Luton Town Active 127 / 123 40% 2 04.03.2027 -
Carlos Forbs Club Brugge Active 135 / 140 40% 4 28.02.2027 Monitor
Yassine Khalifi Charleroi Active 104 / 105 40% 1 24.02.2027 -
Pau Cubarsí Real Sociedad Active 161 / 168 40% 1 18.02.2027 -
Leandro Martins Benfica Active 91 / 93 40% 1 18.02.2027 -
Ilias Sebaoui Sint-Truiden Active 129 / 124 40% 3 11.02.2027 -
Fidel Ambríz Monterrey Active 133 / 140 40% 2 09.02.2027 -
Bongani Zungu Ajax Cape Town Active 121 / 120 40% 1 07.02.2027 -
Joe Gelhardt Hull City Active 135 / 135 40% 1 19.01.2027 -
Wilson Isidor Sunderland Active 135 / 136 40% 1 11.01.2027 -
Mathys Tel Tottenham Active 144 / 147 40% 1 07.01.2027 -
Mateus Mané Burnley Active 136 / 138 40% 1 07.01.2027 -
Miloš Jovičić Zabbar St. Patrick Active 86 / 97 40% 1 02.01.2027 -
Jeremy Márquez Cruz Azul Active 129 / 136 40% 2 27.12.2026 -
Jesús Garza Tigres Active 123 / 133 40% 1 24.12.2026 -
Nathan Collins Brentford Active 142 / 140 40% 1 23.12.2026 -
Pedro Vite Pumas UNAM Active 120 / 130 40% 4 17.12.2026 -
Yehor Yarmoliuk Brentford Active 147 / 151 40% 2 17.12.2026 -
César Araújo Tigres Active 124 / 120 40% 2 17.12.2026 -
Carlos Jimenez Veracruz Active 123 / 124 40% 1 13.12.2026 -
Sindre Walle Egeli Udinese Active 130 / 135 40% 1 11.12.2026 -
Alex Scott Bournemouth Active 147 / 150 40% 1 11.12.2026 -
César Pérez Defensa y Justicia Active 127 / 131 40% 2 10.12.2026 -
Lorenzo Amatucci Deportivo La Coruña Active 135 / 138 40% 1 10.12.2026 -
Alex Luna Instituto Active 132 / 131 40% 4 09.12.2026 -
Emi Rodriguez Leon Active 111 / 109 40% 1 09.12.2026 -
Alan Lescano Argentinos Juniors Active 130 / 136 40% 1 06.12.2026 -
Mikel Gogorza Brondby Active 126 / 136 40% 1 04.12.2026 -
Thalys Almería Active 118 / 132 76% 2 29.11.2026 Strong Approve
Jesús Orozco Chiquete Cruz Azul Active 129 / 136 40% 2 29.11.2026 -
Víctor Guzmán Monterrey Active 127 / 130 40% 2 29.11.2026 -
Alejandro Gómez Tijuana Active 118 / 118 40% 1 25.11.2026 -
Juan Sierra La Equidad Active 130 / 134 40% 2 19.11.2026 -
Alexis Cuello San Lorenzo Active 126 / 122 40% 1 17.11.2026 -
Dara O'Shea Ipswich Town Active 138 / 137 40% 2 16.11.2026 -
Marco Pellegrino Boca Juniors Active 129 / 121 40% 1 15.11.2026 -
Matko Miljevic Racing Club Active 132 / 135 40% 1 10.11.2026 -
Santiago Montiel Independiente Active 128 / 126 40% 3 09.11.2026 -
Omar Campos Cruz Azul Active 124 / 123 40% 1 09.11.2026 -
Ramiro Ruiz Rodríguez Atlético Tucumán Active 122 / 118 40% 1 09.11.2026 -
Tiago Palacios Estudiantes Active 131 / 123 40% 1 09.11.2026 -
Franco Zapiola Platense Active 123 / 115 40% 1 07.11.2026 -
Jaminton Campaz Rosario Central Active 127 / 125 40% 1 04.11.2026 -
Gastón Benedetti Estudiantes Active 120 / 127 40% 1 04.11.2026 -
Santiago Fernández Talleres Active 114 / 116 40% 1 21.10.2026 -
Lautaro Vargas Unión de Santa Fe Active 124 / 124 40% 1 16.10.2026 -
Nico O'Reilly Manchester City Active 154 / 154 40% 2 13.10.2026 -
Felipe Faúndez O'Higgins Active 99 / 108 40% 1 15.09.2026 -
Nahuel Arias San Lorenzo Active 118 / 122 40% 1 13.09.2026 -
Facundo Di Biasi Gimnasia La Plata Active 112 / 123 40% 1 13.09.2026 -
Federico Acosta Miramar Misiones Active 89 / 95 40% 1 12.09.2026 -
Valentín Aguiñagalde Temperley Active 110 / 121 40% 1 10.09.2026 -
Ignacio Perruzzi San Lorenzo Active 118 / 122 40% 1 09.09.2026 -
Mateo Caballero Defensor Sporting Active 97 / 107 40% 1 09.09.2026 -
Ian Garguez Palestino Active 113 / 112 40% 1 07.09.2026 -
Valente Pierani Estudiantes Active 109 / 108 40% 1 01.08.2026 -